sensor_id;sensor_type;location;lat;lon;timestamp;temperature;humidity
13642;DHT22;6894;52.196;9.904;2023-07-08T00:00:10;16.90;1.00
13642;DHT22;6894;52.196;9.904;2023-07-08T00:02:37;16.90;1.00
13642;DHT22;6894;52.196;9.904;2023-07-08T00:05:04;16.80;1.00
13642;DHT22;6894;52.196;9.904;2023-07-08T00:07:31;16.80;1.00
13642;DHT22;6894;52.196;9.904;2023-07-08T00:09:58;16.80;1.00
13642;DHT22;6894;52.196;9.904;2023-07-08T00:12:24;16.80;1.00
13642;DHT22;6894;52.196;9.904;2023-07-08T00:14:52;16.70;1.00
13642;DHT22;6894;52.196;9.904;2023-07-08T00:17:19;16.70;1.00
13642;DHT22;6894;52.196;9.904;2023-07-08T00:19:46;16.70;1.00
13642;DHT22;6894;52.196;9.904;2023-07-08T00:22:14;16.70;1.00
13642;DHT22;6894;52.196;9.904;2023-07-08T00:24:41;16.70;1.00
13642;DHT22;6894;52.196;9.904;2023-07-08T00:27:09;16.50;1.00
13642;DHT22;6894;52.196;9.904;2023-07-08T00:29:37;16.40;1.00
13642;DHT22;6894;52.196;9.904;2023-07-08T00:32:11;16.40;1.00
13642;DHT22;6894;52.196;9.904;2023-07-08T00:34:39;16.30;1.00
13642;DHT22;6894;52.196;9.904;2023-07-08T00:37:10;16.20;1.00
13642;DHT22;6894;52.196;9.904;2023-07-08T00:39:37;16.40;1.00
13642;DHT22;6894;52.196;9.904;2023-07-08T00:42:13;16.40;1.00
13642;DHT22;6894;52.196;9.904;2023-07-08T00:44:41;16.40;1.00
13642;DHT22;6894;52.196;9.904;2023-07-08T00:47:11;16.40;1.00
13642;DHT22;6894;52.196;9.904;2023-07-08T00:49:41;16.40;1.00
13642;DHT22;6894;52.196;9.904;2023-07-08T00:52:21;16.30;1.00
13642;DHT22;6894;52.196;9.904;2023-07-08T00:54:50;16.30;1.00
13642;DHT22;6894;52.196;9.904;2023-07-08T00:57:17;16.40;1.00
13642;DHT22;6894;52.196;9.904;2023-07-08T00:59:47;16.50;1.00
13642;DHT22;6894;52.196;9.904;2023-07-08T01:02:20;16.50;1.00
13642;DHT22;6894;52.196;9.904;2023-07-08T01:04:51;16.40;1.00
13642;DHT22;6894;52.196;9.904;2023-07-08T01:07:19;16.40;1.00
13642;DHT22;6894;52.196;9.904;2023-07-08T01:09:51;16.40;1.00
13642;DHT22;6894;52.196;9.904;2023-07-08T01:12:20;16.30;1.00
13642;DHT22;6894;52.196;9.904;2023-07-08T01:14:49;16.30;1.00
13642;DHT22;6894;52.196;9.904;2023-07-08T01:17:20;16.20;1.00
13642;DHT22;6894;52.196;9.904;2023-07-08T01:19:47;16.10;1.00
13642;DHT22;6894;52.196;9.904;2023-07-08T01:22:18;16.00;1.00
13642;DHT22;6894;52.196;9.904;2023-07-08T01:24:46;15.90;1.00
13642;DHT22;6894;52.196;9.904;2023-07-08T01:27:15;15.80;1.00
13642;DHT22;6894;52.196;9.904;2023-07-08T01:29:43;15.70;1.00
13642;DHT22;6894;52.196;9.904;2023-07-08T01:32:11;15.70;1.00
13642;DHT22;6894;52.196;9.904;2023-07-08T01:34:44;15.70;1.00
13642;DHT22;6894;52.196;9.904;2023-07-08T01:37:19;15.70;1.00
13642;DHT22;6894;52.196;9.904;2023-07-08T01:39:46;15.80;1.00
13642;DHT22;6894;52.196;9.904;2023-07-08T01:42:14;15.90;1.00
13642;DHT22;6894;52.196;9.904;2023-07-08T01:44:40;15.90;1.00
13642;DHT22;6894;52.196;9.904;2023-07-08T01:47:11;15.90;1.00
13642;DHT22;6894;52.196;9.904;2023-07-08T01:49:40;15.90;1.00
13642;DHT22;6894;52.196;9.904;2023-07-08T01:52:08;15.90;1.00
13642;DHT22;6894;52.196;9.904;2023-07-08T01:54:38;15.80;1.00
13642;DHT22;6894;52.196;9.904;2023-07-08T01:57:04;15.70;1.00
13642;DHT22;6894;52.196;9.904;2023-07-08T01:59:31;15.60;1.00
13642;DHT22;6894;52.196;9.904;2023-07-08T02:01:58;15.40;1.00
13642;DHT22;6894;52.196;9.904;2023-07-08T02:04:26;15.40;39.40
13642;DHT22;6894;52.196;9.904;2023-07-08T02:06:57;15.40;99.90
13642;DHT22;6894;52.196;9.904;2023-07-08T02:09:25;15.40;94.40
13642;DHT22;6894;52.196;9.904;2023-07-08T02:11:53;15.30;81.10
13642;DHT22;6894;52.196;9.904;2023-07-08T02:14:20;15.20;72.10
13642;DHT22;6894;52.196;9.904;2023-07-08T02:16:47;15.30;66.60
13642;DHT22;6894;52.196;9.904;2023-07-08T02:19:14;15.30;56.70
13642;DHT22;6894;52.196;9.904;2023-07-08T02:21:41;15.30;90.10
13642;DHT22;6894;52.196;9.904;2023-07-08T02:24:08;15.30;61.20
13642;DHT22;6894;52.196;9.904;2023-07-08T02:26:35;15.30;36.60
13642;DHT22;6894;52.196;9.904;2023-07-08T02:29:03;15.30;50.10
13642;DHT22;6894;52.196;9.904;2023-07-08T02:31:30;15.30;69.50
13642;DHT22;6894;52.196;9.904;2023-07-08T02:33:57;15.50;1.00
13642;DHT22;6894;52.196;9.904;2023-07-08T02:36:24;15.50;1.00
13642;DHT22;6894;52.196;9.904;2023-07-08T02:38:51;15.30;1.00
13642;DHT22;6894;52.196;9.904;2023-07-08T02:41:18;15.20;1.00
13642;DHT22;6894;52.196;9.904;2023-07-08T02:43:45;15.10;1.00
13642;DHT22;6894;52.196;9.904;2023-07-08T02:46:13;15.00;1.00
13642;DHT22;6894;52.196;9.904;2023-07-08T02:48:39;15.00;1.00
13642;DHT22;6894;52.196;9.904;2023-07-08T02:51:06;15.00;1.00
13642;DHT22;6894;52.196;9.904;2023-07-08T02:53:35;14.90;1.00
13642;DHT22;6894;52.196;9.904;2023-07-08T02:56:01;14.90;1.00
13642;DHT22;6894;52.196;9.904;2023-07-08T02:58:28;14.80;88.70
13642;DHT22;6894;52.196;9.904;2023-07-08T03:00:56;14.80;99.90
13642;DHT22;6894;52.196;9.904;2023-07-08T03:03:25;14.80;99.90
13642;DHT22;6894;52.196;9.904;2023-07-08T03:05:55;14.80;99.90
13642;DHT22;6894;52.196;9.904;2023-07-08T03:08:22;14.90;99.90
13642;DHT22;6894;52.196;9.904;2023-07-08T03:10:54;14.80;99.90
13642;DHT22;6894;52.196;9.904;2023-07-08T03:13:22;14.70;99.90
13642;DHT22;6894;52.196;9.904;2023-07-08T03:15:49;14.80;99.90
13642;DHT22;6894;52.196;9.904;2023-07-08T03:18:15;14.80;99.90
13642;DHT22;6894;52.196;9.904;2023-07-08T03:20:44;14.80;99.90
13642;DHT22;6894;52.196;9.904;2023-07-08T03:23:11;14.80;99.90
13642;DHT22;6894;52.196;9.904;2023-07-08T03:25:38;14.80;99.90
13642;DHT22;6894;52.196;9.904;2023-07-08T03:28:05;14.90;99.90
13642;DHT22;6894;52.196;9.904;2023-07-08T03:30:33;14.90;99.90
13642;DHT22;6894;52.196;9.904;2023-07-08T03:33:00;14.90;99.90
13642;DHT22;6894;52.196;9.904;2023-07-08T03:35:27;15.00;99.90
13642;DHT22;6894;52.196;9.904;2023-07-08T03:37:55;15.00;99.90
13642;DHT22;6894;52.196;9.904;2023-07-08T03:40:22;15.00;99.90
13642;DHT22;6894;52.196;9.904;2023-07-08T03:42:48;15.10;99.90
13642;DHT22;6894;52.196;9.904;2023-07-08T03:45:15;15.20;99.90
13642;DHT22;6894;52.196;9.904;2023-07-08T03:47:42;15.20;99.90
13642;DHT22;6894;52.196;9.904;2023-07-08T03:50:19;15.30;99.90
13642;DHT22;6894;52.196;9.904;2023-07-08T03:52:47;15.30;33.90
13642;DHT22;6894;52.196;9.904;2023-07-08T03:55:15;15.30;1.00
13642;DHT22;6894;52.196;9.904;2023-07-08T03:57:42;15.20;1.00
13642;DHT22;6894;52.196;9.904;2023-07-08T04:00:10;15.30;1.00
13642;DHT22;6894;52.196;9.904;2023-07-08T04:02:38;15.30;1.00
13642;DHT22;6894;52.196;9.904;2023-07-08T04:05:06;15.40;1.00
13642;DHT22;6894;52.196;9.904;2023-07-08T04:07:33;15.20;1.00
13642;DHT22;6894;52.196;9.904;2023-07-08T04:10:00;15.20;1.00
13642;DHT22;6894;52.196;9.904;2023-07-08T04:12:28;15.10;1.00
13642;DHT22;6894;52.196;9.904;2023-07-08T04:14:55;15.00;1.00
13642;DHT22;6894;52.196;9.904;2023-07-08T04:17:21;14.90;1.00
13642;DHT22;6894;52.196;9.904;2023-07-08T04:19:49;15.00;1.00
13642;DHT22;6894;52.196;9.904;2023-07-08T04:22:16;15.10;2.00
13642;DHT22;6894;52.196;9.904;2023-07-08T04:24:43;15.20;1.00
13642;DHT22;6894;52.196;9.904;2023-07-08T04:27:13;15.30;1.00
13642;DHT22;6894;52.196;9.904;2023-07-08T04:29:42;15.40;1.00
13642;DHT22;6894;52.196;9.904;2023-07-08T04:32:10;15.40;1.00
13642;DHT22;6894;52.196;9.904;2023-07-08T04:34:36;15.50;1.00
13642;DHT22;6894;52.196;9.904;2023-07-08T04:37:03;15.60;1.00
13642;DHT22;6894;52.196;9.904;2023-07-08T04:39:31;15.80;1.00
13642;DHT22;6894;52.196;9.904;2023-07-08T04:41:58;16.00;1.00
13642;DHT22;6894;52.196;9.904;2023-07-08T04:44:25;16.20;1.00
13642;DHT22;6894;52.196;9.904;2023-07-08T04:46:55;16.20;99.90
13642;DHT22;6894;52.196;9.904;2023-07-08T04:49:23;16.40;99.90
13642;DHT22;6894;52.196;9.904;2023-07-08T04:51:50;16.50;98.50
13642;DHT22;6894;52.196;9.904;2023-07-08T04:54:17;16.70;1.00
13642;DHT22;6894;52.196;9.904;2023-07-08T04:56:46;16.80;1.00
13642;DHT22;6894;52.196;9.904;2023-07-08T04:59:15;17.00;99.90
13642;DHT22;6894;52.196;9.904;2023-07-08T05:01:42;17.20;1.00
13642;DHT22;6894;52.196;9.904;2023-07-08T05:04:12;17.30;99.90
13642;DHT22;6894;52.196;9.904;2023-07-08T05:06:40;17.40;99.90
13642;DHT22;6894;52.196;9.904;2023-07-08T05:09:06;17.60;99.90
13642;DHT22;6894;52.196;9.904;2023-07-08T05:11:34;17.80;1.00
13642;DHT22;6894;52.196;9.904;2023-07-08T05:14:01;17.90;94.60
13642;DHT22;6894;52.196;9.904;2023-07-08T05:16:28;17.90;1.00
13642;DHT22;6894;52.196;9.904;2023-07-08T05:18:54;17.80;1.00
13642;DHT22;6894;52.196;9.904;2023-07-08T05:21:23;17.80;99.90
13642;DHT22;6894;52.196;9.904;2023-07-08T05:23:52;17.90;1.00
13642;DHT22;6894;52.196;9.904;2023-07-08T05:26:19;18.00;1.00
13642;DHT22;6894;52.196;9.904;2023-07-08T05:28:46;18.10;95.00
13642;DHT22;6894;52.196;9.904;2023-07-08T05:31:12;18.20;1.00
13642;DHT22;6894;52.196;9.904;2023-07-08T05:33:39;18.10;99.90
13642;DHT22;6894;52.196;9.904;2023-07-08T05:36:06;18.20;99.90
13642;DHT22;6894;52.196;9.904;2023-07-08T05:38:34;18.20;99.90
13642;DHT22;6894;52.196;9.904;2023-07-08T05:41:01;18.40;99.90
13642;DHT22;6894;52.196;9.904;2023-07-08T05:43:27;18.60;99.90
13642;DHT22;6894;52.196;9.904;2023-07-08T05:45:58;18.90;1.00
13642;DHT22;6894;52.196;9.904;2023-07-08T05:48:25;19.30;99.90
13642;DHT22;6894;52.196;9.904;2023-07-08T05:50:52;19.40;99.90
13642;DHT22;6894;52.196;9.904;2023-07-08T05:53:19;19.40;1.00
13642;DHT22;6894;52.196;9.904;2023-07-08T05:55:48;19.40;1.00
13642;DHT22;6894;52.196;9.904;2023-07-08T05:58:15;19.40;1.00
13642;DHT22;6894;52.196;9.904;2023-07-08T06:00:41;19.40;1.00
13642;DHT22;6894;52.196;9.904;2023-07-08T06:03:08;19.40;1.00
13642;DHT22;6894;52.196;9.904;2023-07-08T06:05:36;19.50;1.00
13642;DHT22;6894;52.196;9.904;2023-07-08T06:08:05;19.70;99.90
13642;DHT22;6894;52.196;9.904;2023-07-08T06:10:33;19.90;1.00
13642;DHT22;6894;52.196;9.904;2023-07-08T06:13:01;20.00;1.00
13642;DHT22;6894;52.196;9.904;2023-07-08T06:15:28;20.20;1.00
13642;DHT22;6894;52.196;9.904;2023-07-08T06:17:54;20.50;1.00
13642;DHT22;6894;52.196;9.904;2023-07-08T06:20:21;20.80;99.90
13642;DHT22;6894;52.196;9.904;2023-07-08T06:22:48;20.90;25.30
13642;DHT22;6894;52.196;9.904;2023-07-08T06:25:14;21.20;1.00
13642;DHT22;6894;52.196;9.904;2023-07-08T06:27:41;21.40;1.00
13642;DHT22;6894;52.196;9.904;2023-07-08T06:30:10;21.70;99.90
13642;DHT22;6894;52.196;9.904;2023-07-08T06:32:37;22.00;99.90
13642;DHT22;6894;52.196;9.904;2023-07-08T06:35:04;22.20;1.00
13642;DHT22;6894;52.196;9.904;2023-07-08T06:37:31;22.50;1.00
13642;DHT22;6894;52.196;9.904;2023-07-08T06:39:57;22.70;1.00
13642;DHT22;6894;52.196;9.904;2023-07-08T06:42:24;22.70;1.00
13642;DHT22;6894;52.196;9.904;2023-07-08T06:44:51;22.60;1.00
13642;DHT22;6894;52.196;9.904;2023-07-08T06:47:20;22.40;1.00
13642;DHT22;6894;52.196;9.904;2023-07-08T06:49:47;22.40;1.00
13642;DHT22;6894;52.196;9.904;2023-07-08T06:52:14;22.40;1.00
13642;DHT22;6894;52.196;9.904;2023-07-08T06:54:41;22.30;1.00
13642;DHT22;6894;52.196;9.904;2023-07-08T06:57:08;22.30;1.00
13642;DHT22;6894;52.196;9.904;2023-07-08T06:59:35;22.70;1.00
13642;DHT22;6894;52.196;9.904;2023-07-08T07:02:02;23.10;1.00
13642;DHT22;6894;52.196;9.904;2023-07-08T07:04:30;23.50;99.90
13642;DHT22;6894;52.196;9.904;2023-07-08T07:06:57;23.70;62.80
13642;DHT22;6894;52.196;9.904;2023-07-08T07:09:24;23.80;1.00
13642;DHT22;6894;52.196;9.904;2023-07-08T07:11:51;23.80;1.00
13642;DHT22;6894;52.196;9.904;2023-07-08T07:14:17;24.00;1.00
13642;DHT22;6894;52.196;9.904;2023-07-08T07:16:44;24.20;1.00
13642;DHT22;6894;52.196;9.904;2023-07-08T07:19:11;24.60;1.00
13642;DHT22;6894;52.196;9.904;2023-07-08T07:21:39;24.80;1.00
13642;DHT22;6894;52.196;9.904;2023-07-08T07:24:06;25.00;1.00
13642;DHT22;6894;52.196;9.904;2023-07-08T07:26:33;25.30;1.00
13642;DHT22;6894;52.196;9.904;2023-07-08T07:29:02;25.50;1.00
13642;DHT22;6894;52.196;9.904;2023-07-08T07:31:28;25.60;1.00
13642;DHT22;6894;52.196;9.904;2023-07-08T07:33:58;25.60;1.00
13642;DHT22;6894;52.196;9.904;2023-07-08T07:36:25;25.70;1.00
13642;DHT22;6894;52.196;9.904;2023-07-08T07:38:53;25.80;1.00
13642;DHT22;6894;52.196;9.904;2023-07-08T07:41:19;26.00;1.00
13642;DHT22;6894;52.196;9.904;2023-07-08T07:43:46;26.40;1.00
13642;DHT22;6894;52.196;9.904;2023-07-08T07:46:13;26.50;1.00
13642;DHT22;6894;52.196;9.904;2023-07-08T07:48:40;26.70;1.00
13642;DHT22;6894;52.196;9.904;2023-07-08T07:51:08;27.00;1.00
13642;DHT22;6894;52.196;9.904;2023-07-08T07:53:36;27.20;1.00
13642;DHT22;6894;52.196;9.904;2023-07-08T07:56:05;27.50;1.00
13642;DHT22;6894;52.196;9.904;2023-07-08T07:58:35;27.50;99.90
13642;DHT22;6894;52.196;9.904;2023-07-08T08:01:01;27.40;99.90
13642;DHT22;6894;52.196;9.904;2023-07-08T08:03:28;27.50;99.90
13642;DHT22;6894;52.196;9.904;2023-07-08T08:05:55;27.70;99.90
13642;DHT22;6894;52.196;9.904;2023-07-08T08:08:21;27.90;99.90
13642;DHT22;6894;52.196;9.904;2023-07-08T08:10:48;27.80;99.90
13642;DHT22;6894;52.196;9.904;2023-07-08T08:13:16;28.20;99.90
13642;DHT22;6894;52.196;9.904;2023-07-08T08:15:43;28.40;99.90
13642;DHT22;6894;52.196;9.904;2023-07-08T08:18:10;28.40;99.90
13642;DHT22;6894;52.196;9.904;2023-07-08T08:20:37;28.40;99.90
13642;DHT22;6894;52.196;9.904;2023-07-08T08:23:05;28.70;99.90
13642;DHT22;6894;52.196;9.904;2023-07-08T08:25:32;28.80;99.90
13642;DHT22;6894;52.196;9.904;2023-07-08T08:27:59;28.80;99.90
13642;DHT22;6894;52.196;9.904;2023-07-08T08:30:27;29.00;99.90
13642;DHT22;6894;52.196;9.904;2023-07-08T08:32:54;29.30;99.90
13642;DHT22;6894;52.196;9.904;2023-07-08T08:35:21;29.60;99.90
13642;DHT22;6894;52.196;9.904;2023-07-08T08:37:47;29.70;99.90
13642;DHT22;6894;52.196;9.904;2023-07-08T08:40:17;29.60;99.90
13642;DHT22;6894;52.196;9.904;2023-07-08T08:42:46;29.60;99.90
13642;DHT22;6894;52.196;9.904;2023-07-08T08:45:19;29.90;99.90
13642;DHT22;6894;52.196;9.904;2023-07-08T08:47:50;29.80;99.90
13642;DHT22;6894;52.196;9.904;2023-07-08T08:50:28;29.70;99.90
13642;DHT22;6894;52.196;9.904;2023-07-08T08:52:57;29.80;99.90
13642;DHT22;6894;52.196;9.904;2023-07-08T08:55:25;30.10;99.90
13642;DHT22;6894;52.196;9.904;2023-07-08T08:58:00;30.10;99.90
13642;DHT22;6894;52.196;9.904;2023-07-08T09:00:44;30.20;99.90
13642;DHT22;6894;52.196;9.904;2023-07-08T09:03:15;30.60;99.90
13642;DHT22;6894;52.196;9.904;2023-07-08T09:05:44;30.50;99.90
13642;DHT22;6894;52.196;9.904;2023-07-08T09:08:15;30.30;99.90
13642;DHT22;6894;52.196;9.904;2023-07-08T09:10:45;30.40;99.90
13642;DHT22;6894;52.196;9.904;2023-07-08T09:13:18;30.60;99.90
13642;DHT22;6894;52.196;9.904;2023-07-08T09:15:48;30.70;99.90
13642;DHT22;6894;52.196;9.904;2023-07-08T09:18:30;30.70;99.90
13642;DHT22;6894;52.196;9.904;2023-07-08T09:21:01;30.90;99.90
13642;DHT22;6894;52.196;9.904;2023-07-08T09:23:33;30.80;99.90
13642;DHT22;6894;52.196;9.904;2023-07-08T09:26:06;30.90;99.90
13642;DHT22;6894;52.196;9.904;2023-07-08T09:28:38;30.90;99.90
13642;DHT22;6894;52.196;9.904;2023-07-08T09:31:07;31.10;99.90
13642;DHT22;6894;52.196;9.904;2023-07-08T09:33:38;31.50;99.90
13642;DHT22;6894;52.196;9.904;2023-07-08T09:36:16;31.30;99.90
13642;DHT22;6894;52.196;9.904;2023-07-08T09:38:46;31.50;99.90
13642;DHT22;6894;52.196;9.904;2023-07-08T09:41:13;31.30;99.90
13642;DHT22;6894;52.196;9.904;2023-07-08T09:43:40;31.30;99.90
13642;DHT22;6894;52.196;9.904;2023-07-08T09:46:12;31.10;99.90
13642;DHT22;6894;52.196;9.904;2023-07-08T09:48:40;30.80;99.90
13642;DHT22;6894;52.196;9.904;2023-07-08T09:51:07;30.30;99.90
13642;DHT22;6894;52.196;9.904;2023-07-08T09:53:35;30.40;99.90
13642;DHT22;6894;52.196;9.904;2023-07-08T09:56:04;30.50;99.90
13642;DHT22;6894;52.196;9.904;2023-07-08T09:58:34;30.60;99.90
13642;DHT22;6894;52.196;9.904;2023-07-08T10:01:09;30.70;99.90
13642;DHT22;6894;52.196;9.904;2023-07-08T10:03:37;31.10;99.90
13642;DHT22;6894;52.196;9.904;2023-07-08T10:06:14;31.30;99.90
13642;DHT22;6894;52.196;9.904;2023-07-08T10:08:44;31.50;99.90
13642;DHT22;6894;52.196;9.904;2023-07-08T10:11:18;31.30;99.90
13642;DHT22;6894;52.196;9.904;2023-07-08T10:13:49;31.50;99.90
13642;DHT22;6894;52.196;9.904;2023-07-08T10:16:21;31.40;99.90
13642;DHT22;6894;52.196;9.904;2023-07-08T10:18:49;31.50;99.90
13642;DHT22;6894;52.196;9.904;2023-07-08T10:21:25;31.90;99.90
13642;DHT22;6894;52.196;9.904;2023-07-08T10:23:59;32.10;99.90
13642;DHT22;6894;52.196;9.904;2023-07-08T10:26:31;32.30;99.90
13642;DHT22;6894;52.196;9.904;2023-07-08T10:29:09;32.20;99.90
13642;DHT22;6894;52.196;9.904;2023-07-08T10:31:45;32.10;99.90
13642;DHT22;6894;52.196;9.904;2023-07-08T10:34:26;32.40;99.90
13642;DHT22;6894;52.196;9.904;2023-07-08T10:37:02;32.70;99.90
13642;DHT22;6894;52.196;9.904;2023-07-08T10:39:55;32.70;99.90
13642;DHT22;6894;52.196;9.904;2023-07-08T10:42:34;32.80;99.90
13642;DHT22;6894;52.196;9.904;2023-07-08T10:45:10;33.30;99.90
13642;DHT22;6894;52.196;9.904;2023-07-08T10:47:45;33.50;99.90
13642;DHT22;6894;52.196;9.904;2023-07-08T10:50:26;33.60;99.90
13642;DHT22;6894;52.196;9.904;2023-07-08T10:53:06;33.80;99.90
13642;DHT22;6894;52.196;9.904;2023-07-08T10:55:42;34.10;99.90
13642;DHT22;6894;52.196;9.904;2023-07-08T10:58:39;34.10;99.90
13642;DHT22;6894;52.196;9.904;2023-07-08T11:01:15;34.20;99.90
13642;DHT22;6894;52.196;9.904;2023-07-08T11:04:01;34.10;99.90
13642;DHT22;6894;52.196;9.904;2023-07-08T11:06:40;34.40;99.90
13642;DHT22;6894;52.196;9.904;2023-07-08T11:09:12;34.70;99.90
13642;DHT22;6894;52.196;9.904;2023-07-08T11:11:42;34.70;99.90
13642;DHT22;6894;52.196;9.904;2023-07-08T11:14:11;34.60;99.90
13642;DHT22;6894;52.196;9.904;2023-07-08T11:16:43;34.50;99.90
13642;DHT22;6894;52.196;9.904;2023-07-08T11:19:14;34.60;99.90
13642;DHT22;6894;52.196;9.904;2023-07-08T11:21:45;34.90;99.90
13642;DHT22;6894;52.196;9.904;2023-07-08T11:24:21;35.20;99.90
13642;DHT22;6894;52.196;9.904;2023-07-08T11:26:52;35.30;99.90
13642;DHT22;6894;52.196;9.904;2023-07-08T11:29:22;35.70;99.90
13642;DHT22;6894;52.196;9.904;2023-07-08T11:31:52;35.80;99.90
13642;DHT22;6894;52.196;9.904;2023-07-08T11:34:19;35.90;99.90
13642;DHT22;6894;52.196;9.904;2023-07-08T11:36:49;35.90;99.90
13642;DHT22;6894;52.196;9.904;2023-07-08T11:39:31;35.90;99.90
13642;DHT22;6894;52.196;9.904;2023-07-08T11:42:11;35.80;99.90
13642;DHT22;6894;52.196;9.904;2023-07-08T11:44:42;35.90;99.90
13642;DHT22;6894;52.196;9.904;2023-07-08T11:47:15;35.90;99.90
13642;DHT22;6894;52.196;9.904;2023-07-08T11:49:43;36.10;99.90
13642;DHT22;6894;52.196;9.904;2023-07-08T11:52:14;36.20;99.90
13642;DHT22;6894;52.196;9.904;2023-07-08T11:54:45;36.00;99.90
13642;DHT22;6894;52.196;9.904;2023-07-08T11:57:17;35.90;99.90
13642;DHT22;6894;52.196;9.904;2023-07-08T11:59:46;35.90;99.90
13642;DHT22;6894;52.196;9.904;2023-07-08T12:02:14;35.50;99.90
13642;DHT22;6894;52.196;9.904;2023-07-08T12:04:58;35.70;99.90
13642;DHT22;6894;52.196;9.904;2023-07-08T12:07:32;36.10;99.90
13642;DHT22;6894;52.196;9.904;2023-07-08T12:10:05;36.10;99.90
13642;DHT22;6894;52.196;9.904;2023-07-08T12:12:36;36.50;99.90
13642;DHT22;6894;52.196;9.904;2023-07-08T12:15:12;36.60;99.90
13642;DHT22;6894;52.196;9.904;2023-07-08T12:17:40;36.50;99.90
13642;DHT22;6894;52.196;9.904;2023-07-08T12:20:17;36.60;99.90
13642;DHT22;6894;52.196;9.904;2023-07-08T12:22:44;36.40;99.90
13642;DHT22;6894;52.196;9.904;2023-07-08T12:25:15;36.30;99.90
13642;DHT22;6894;52.196;9.904;2023-07-08T12:27:42;36.30;99.90
13642;DHT22;6894;52.196;9.904;2023-07-08T12:30:10;36.70;99.90
13642;DHT22;6894;52.196;9.904;2023-07-08T12:32:38;36.80;99.90
13642;DHT22;6894;52.196;9.904;2023-07-08T12:35:05;36.80;99.90
13642;DHT22;6894;52.196;9.904;2023-07-08T12:37:40;36.40;99.90
13642;DHT22;6894;52.196;9.904;2023-07-08T12:40:10;36.60;99.90
13642;DHT22;6894;52.196;9.904;2023-07-08T12:42:38;36.70;99.90
13642;DHT22;6894;52.196;9.904;2023-07-08T12:45:13;36.70;99.90
13642;DHT22;6894;52.196;9.904;2023-07-08T12:47:40;36.50;99.90
13642;DHT22;6894;52.196;9.904;2023-07-08T12:50:08;36.10;99.90
13642;DHT22;6894;52.196;9.904;2023-07-08T12:52:35;36.10;99.90
13642;DHT22;6894;52.196;9.904;2023-07-08T12:55:02;36.30;99.90
13642;DHT22;6894;52.196;9.904;2023-07-08T12:57:29;36.60;99.90
13642;DHT22;6894;52.196;9.904;2023-07-08T12:59:57;36.60;99.90
13642;DHT22;6894;52.196;9.904;2023-07-08T13:02:25;36.40;99.90
13642;DHT22;6894;52.196;9.904;2023-07-08T13:04:57;36.60;99.90
13642;DHT22;6894;52.196;9.904;2023-07-08T13:07:33;36.50;99.90
13642;DHT22;6894;52.196;9.904;2023-07-08T13:10:01;36.50;99.90
13642;DHT22;6894;52.196;9.904;2023-07-08T13:12:29;36.60;99.90
13642;DHT22;6894;52.196;9.904;2023-07-08T13:14:59;36.90;99.90
13642;DHT22;6894;52.196;9.904;2023-07-08T13:17:26;36.80;99.90
13642;DHT22;6894;52.196;9.904;2023-07-08T13:19:53;36.80;99.90
13642;DHT22;6894;52.196;9.904;2023-07-08T13:22:22;36.90;99.90
13642;DHT22;6894;52.196;9.904;2023-07-08T13:24:58;37.10;99.90
13642;DHT22;6894;52.196;9.904;2023-07-08T13:27:26;36.70;99.90
13642;DHT22;6894;52.196;9.904;2023-07-08T13:29:54;36.80;99.90
13642;DHT22;6894;52.196;9.904;2023-07-08T13:32:29;36.70;99.90
13642;DHT22;6894;52.196;9.904;2023-07-08T13:34:56;36.70;99.90
13642;DHT22;6894;52.196;9.904;2023-07-08T13:37:23;36.80;99.90
13642;DHT22;6894;52.196;9.904;2023-07-08T13:39:53;37.00;99.90
13642;DHT22;6894;52.196;9.904;2023-07-08T13:42:20;36.90;99.90
13642;DHT22;6894;52.196;9.904;2023-07-08T13:44:48;36.90;99.90
13642;DHT22;6894;52.196;9.904;2023-07-08T13:47:27;36.60;99.90
13642;DHT22;6894;52.196;9.904;2023-07-08T13:50:00;36.20;99.90
13642;DHT22;6894;52.196;9.904;2023-07-08T13:52:28;36.10;99.90
13642;DHT22;6894;52.196;9.904;2023-07-08T13:54:59;36.10;99.90
13642;DHT22;6894;52.196;9.904;2023-07-08T13:57:32;36.20;99.90
13642;DHT22;6894;52.196;9.904;2023-07-08T13:59:59;36.10;99.90
13642;DHT22;6894;52.196;9.904;2023-07-08T14:02:30;36.00;99.90
13642;DHT22;6894;52.196;9.904;2023-07-08T14:04:58;36.00;99.90
13642;DHT22;6894;52.196;9.904;2023-07-08T14:07:27;36.00;99.90
13642;DHT22;6894;52.196;9.904;2023-07-08T14:09:55;36.10;99.90
13642;DHT22;6894;52.196;9.904;2023-07-08T14:12:22;36.20;99.90
13642;DHT22;6894;52.196;9.904;2023-07-08T14:14:49;36.40;99.90
13642;DHT22;6894;52.196;9.904;2023-07-08T14:17:20;36.40;99.90
13642;DHT22;6894;52.196;9.904;2023-07-08T14:19:50;36.10;99.90
13642;DHT22;6894;52.196;9.904;2023-07-08T14:22:23;36.00;99.90
13642;DHT22;6894;52.196;9.904;2023-07-08T14:24:50;36.00;99.90
13642;DHT22;6894;52.196;9.904;2023-07-08T14:27:17;36.10;99.90
13642;DHT22;6894;52.196;9.904;2023-07-08T14:29:46;35.90;99.90
13642;DHT22;6894;52.196;9.904;2023-07-08T14:32:15;35.90;99.90
13642;DHT22;6894;52.196;9.904;2023-07-08T14:34:42;35.90;99.90
13642;DHT22;6894;52.196;9.904;2023-07-08T14:37:15;35.90;99.90
13642;DHT22;6894;52.196;9.904;2023-07-08T14:39:43;36.00;99.90
13642;DHT22;6894;52.196;9.904;2023-07-08T14:42:11;36.30;99.90
13642;DHT22;6894;52.196;9.904;2023-07-08T14:44:39;36.10;99.90
13642;DHT22;6894;52.196;9.904;2023-07-08T14:47:09;35.50;99.90
13642;DHT22;6894;52.196;9.904;2023-07-08T14:49:36;35.10;99.90
13642;DHT22;6894;52.196;9.904;2023-07-08T14:52:03;35.10;99.90
13642;DHT22;6894;52.196;9.904;2023-07-08T14:54:32;35.40;99.90
13642;DHT22;6894;52.196;9.904;2023-07-08T14:56:59;35.30;99.90
13642;DHT22;6894;52.196;9.904;2023-07-08T14:59:29;35.30;99.90
13642;DHT22;6894;52.196;9.904;2023-07-08T15:01:58;35.20;99.90
13642;DHT22;6894;52.196;9.904;2023-07-08T15:04:25;35.40;99.90
13642;DHT22;6894;52.196;9.904;2023-07-08T15:06:53;35.40;99.90
13642;DHT22;6894;52.196;9.904;2023-07-08T15:09:22;35.60;99.90
13642;DHT22;6894;52.196;9.904;2023-07-08T15:11:50;35.80;99.90
13642;DHT22;6894;52.196;9.904;2023-07-08T15:14:19;35.70;99.90
13642;DHT22;6894;52.196;9.904;2023-07-08T15:16:47;35.80;99.90
13642;DHT22;6894;52.196;9.904;2023-07-08T15:19:14;35.60;99.90
13642;DHT22;6894;52.196;9.904;2023-07-08T15:21:41;35.80;99.90
13642;DHT22;6894;52.196;9.904;2023-07-08T15:24:10;35.70;99.90
13642;DHT22;6894;52.196;9.904;2023-07-08T15:26:37;35.70;99.90
13642;DHT22;6894;52.196;9.904;2023-07-08T15:29:07;35.40;99.90
13642;DHT22;6894;52.196;9.904;2023-07-08T15:31:38;35.00;99.90
13642;DHT22;6894;52.196;9.904;2023-07-08T15:34:07;35.00;99.90
13642;DHT22;6894;52.196;9.904;2023-07-08T15:36:38;35.00;99.90
13642;DHT22;6894;52.196;9.904;2023-07-08T15:39:04;35.20;99.90
13642;DHT22;6894;52.196;9.904;2023-07-08T15:41:31;35.00;99.90
13642;DHT22;6894;52.196;9.904;2023-07-08T15:43:58;35.10;99.90
13642;DHT22;6894;52.196;9.904;2023-07-08T15:46:30;35.10;99.90
13642;DHT22;6894;52.196;9.904;2023-07-08T15:48:57;35.10;99.90
13642;DHT22;6894;52.196;9.904;2023-07-08T15:51:24;35.10;99.90
13642;DHT22;6894;52.196;9.904;2023-07-08T15:53:51;34.90;99.90
13642;DHT22;6894;52.196;9.904;2023-07-08T15:56:19;34.90;99.90
13642;DHT22;6894;52.196;9.904;2023-07-08T15:58:47;34.80;99.90
13642;DHT22;6894;52.196;9.904;2023-07-08T16:01:17;34.70;99.90
13642;DHT22;6894;52.196;9.904;2023-07-08T16:03:47;34.60;99.90